createdAt,value
2023-07-24T00:06:04.161Z,93
2023-07-24T00:10:48.354Z,95
2023-07-24T00:15:32.544Z,96.5
2023-07-24T00:20:16.637Z,97
2023-07-24T00:25:00.802Z,95
2023-07-24T00:29:45.015Z,95
2023-07-24T00:34:29.132Z,95
2023-07-24T00:39:13.458Z,95
2023-07-24T00:43:57.631Z,93.5
2023-07-24T00:48:41.858Z,90
2023-07-24T00:53:25.962Z,92
2023-07-24T00:58:10.149Z,94
2023-07-24T01:02:54.357Z,94
2023-07-24T01:07:38.544Z,94.5
2023-07-24T01:12:23.134Z,95
2023-07-24T01:17:07.368Z,93.5
2023-07-24T01:21:51.468Z,94.5
2023-07-24T01:26:35.790Z,93.5
2023-07-24T01:31:19.858Z,92.5
2023-07-24T01:36:04.011Z,93
2023-07-24T01:40:48.208Z,92.5
2023-07-24T01:45:32.321Z,93
2023-07-24T01:50:16.493Z,95.5
2023-07-24T01:55:00.653Z,96.5
2023-07-24T01:59:44.846Z,96.5
2023-07-24T02:04:29.348Z,97
2023-07-24T02:09:13.537Z,96.5
2023-07-24T02:13:57.744Z,96
2023-07-24T02:18:41.855Z,98
2023-07-24T02:23:26.020Z,99.5
2023-07-24T02:28:10.187Z,99.5
2023-07-24T02:32:54.769Z,99.5
2023-07-24T02:37:39.226Z,99.5
2023-07-24T02:42:23.436Z,99.5
2023-07-24T02:47:07.588Z,99.5
2023-07-24T02:51:51.749Z,99.5
2023-07-24T02:56:35.925Z,99.5
2023-07-24T03:01:20.059Z,99.5
2023-07-24T03:06:04.751Z,99.5
2023-07-24T03:10:48.930Z,99.5
2023-07-24T03:15:33.232Z,99.5
2023-07-24T03:20:17.433Z,99.5
2023-07-24T03:25:01.638Z,99.5
2023-07-24T03:29:45.738Z,99.5
2023-07-24T03:34:29.920Z,99.5
2023-07-24T03:39:14.152Z,99.5
2023-07-24T03:43:58.254Z,99.5
2023-07-24T03:48:42.445Z,99.5
2023-07-24T03:53:26.585Z,99.5
2023-07-24T03:58:10.762Z,99.5
2023-07-24T04:02:54.979Z,99.5
2023-07-24T04:07:39.278Z,99.5
2023-07-24T04:12:23.297Z,99.5
2023-07-24T04:17:07.437Z,99.5
2023-07-24T04:21:51.708Z,99.5
2023-07-24T04:26:35.811Z,99.5
2023-07-24T04:31:20.017Z,99.5
2023-07-24T04:36:04.217Z,99.5
2023-07-24T04:40:48.471Z,99.5
2023-07-24T04:50:16.736Z,96.5
2023-07-24T04:55:00.847Z,93.5
2023-07-24T05:04:29.346Z,88
2023-07-24T05:09:13.562Z,88
2023-07-24T05:18:41.834Z,88
2023-07-24T05:23:26.002Z,87
2023-07-24T05:28:10.185Z,86
2023-07-24T05:32:54.324Z,82.5
2023-07-24T05:37:38.861Z,82.5
2023-07-24T05:42:23.098Z,81
2023-07-24T05:47:07.207Z,80
2023-07-24T05:51:51.366Z,78.5
2023-07-24T05:56:35.589Z,78
2023-07-24T06:01:19.723Z,79
2023-07-24T06:06:03.898Z,79
2023-07-24T06:10:48.036Z,77.5
2023-07-24T06:15:32.252Z,77
2023-07-24T06:20:16.543Z,76.5
2023-07-24T06:25:00.751Z,76
2023-07-24T06:29:44.797Z,75.5
2023-07-24T06:34:28.975Z,74
2023-07-24T06:39:13.126Z,72.5
2023-07-24T06:43:57.389Z,72.5
2023-07-24T06:48:41.472Z,72.5
2023-07-24T06:53:25.576Z,71.5
2023-07-24T06:58:10.061Z,71.5
2023-07-24T07:02:54.096Z,71
2023-07-24T07:17:06.602Z,69
2023-07-24T07:21:50.831Z,68
2023-07-24T07:26:34.975Z,68.5
2023-07-24T07:31:19.123Z,67
2023-07-24T07:36:03.366Z,65.5
2023-07-24T07:40:47.449Z,66
2023-07-24T07:45:31.809Z,67
2023-07-24T07:50:15.854Z,67.5
2023-07-24T07:54:59.972Z,68
2023-07-24T07:59:44.168Z,68
2023-07-24T08:04:28.463Z,67.5
2023-07-24T08:13:56.682Z,68
2023-07-24T08:18:41.193Z,68
2023-07-24T08:23:25.709Z,68.5
2023-07-24T08:28:09.914Z,68
2023-07-24T08:32:54.004Z,68.5
2023-07-24T08:37:38.512Z,69.5
2023-07-24T08:47:07.054Z,72.5
2023-07-24T08:51:50.555Z,72.5
2023-07-24T08:56:33.844Z,73.5
2023-07-24T09:01:17.077Z,75
2023-07-24T09:06:00.350Z,75
2023-07-24T09:10:43.168Z,75.5
2023-07-24T09:24:52.967Z,73.5
2023-07-24T09:39:02.773Z,67.5
2023-07-24T09:43:46.008Z,68.5
2023-07-24T09:53:12.588Z,64
2023-07-24T09:57:55.813Z,60.5
2023-07-24T10:07:22.407Z,58.5
2023-07-24T10:12:05.606Z,56
2023-07-24T10:16:48.907Z,56.5
2023-07-24T10:21:31.914Z,55
2023-07-24T10:26:15.108Z,52
2023-07-24T10:30:58.432Z,57
2023-07-24T10:35:41.759Z,56
2023-07-24T10:40:24.935Z,58
2023-07-24T10:49:51.422Z,61
2023-07-24T10:54:34.752Z,61.5
2023-07-24T11:18:11.071Z,76.5
2023-07-24T11:22:54.379Z,78.5
2023-07-24T11:27:37.181Z,83
2023-07-24T11:37:03.695Z,90.5
2023-07-24T11:46:30.440Z,93
2023-07-24T11:51:13.511Z,94
2023-07-24T12:00:40.238Z,95
2023-07-24T12:05:23.257Z,92.5
2023-07-24T12:10:06.512Z,93.5
2023-07-24T12:14:49.798Z,96
2023-07-24T12:19:33.127Z,97
2023-07-24T12:24:16.404Z,95.5
2023-07-24T12:28:59.655Z,97
2023-07-24T12:33:42.938Z,94.5
2023-07-24T12:38:26.143Z,94.5
2023-07-24T12:43:09.422Z,94
2023-07-24T12:47:52.729Z,94.5
2023-07-24T12:52:35.548Z,93
2023-07-24T12:57:18.902Z,92.5
2023-07-24T13:02:02.317Z,91
2023-07-24T13:06:45.637Z,93.5
2023-07-24T13:16:11.888Z,93
2023-07-24T13:20:55.215Z,90.5
2023-07-24T13:25:38.514Z,88.5
2023-07-24T13:30:21.720Z,87.5
2023-07-24T13:35:05.067Z,87
2023-07-24T13:39:48.230Z,87
2023-07-24T13:44:31.567Z,84
2023-07-24T13:49:14.817Z,80
2023-07-24T13:53:58.016Z,71.5
2023-07-24T13:58:41.395Z,71
2023-07-24T14:08:07.548Z,81
2023-07-24T14:17:34.077Z,78
2023-07-24T14:22:17.325Z,78
2023-07-24T14:27:00.654Z,78.5
2023-07-24T14:31:43.939Z,79
2023-07-24T14:36:26.851Z,77.5
2023-07-24T14:41:09.953Z,73.5
2023-07-24T14:45:53.245Z,73
2023-07-24T14:50:36.504Z,73.5
2023-07-24T14:55:19.939Z,74
2023-07-24T15:00:03.087Z,70
2023-07-24T15:04:46.613Z,68
2023-07-24T15:18:56.076Z,66
2023-07-24T15:23:39.426Z,67
2023-07-24T15:33:06.015Z,68
2023-07-24T15:37:49.222Z,67.5
2023-07-24T15:42:32.460Z,66
2023-07-24T15:51:58.930Z,61
2023-07-24T15:56:42.207Z,63.5
2023-07-24T16:01:25.459Z,66
2023-07-24T16:06:08.758Z,65
2023-07-24T16:10:52.192Z,66
2023-07-24T16:15:35.267Z,67
2023-07-24T16:20:18.526Z,67.5
2023-07-24T16:25:00.939Z,67
2023-07-24T16:29:43.622Z,67
2023-07-24T16:34:26.439Z,66.5
2023-07-24T16:39:09.218Z,66.5
2023-07-24T16:43:51.850Z,65
2023-07-24T16:48:34.602Z,61
2023-07-24T16:53:17.299Z,61.5
2023-07-24T17:07:25.505Z,67.5
2023-07-24T17:12:08.220Z,68
2023-07-24T17:16:50.961Z,69.5
2023-07-24T17:21:33.724Z,69.5
2023-07-24T17:26:16.432Z,69.5
2023-07-24T17:30:59.151Z,67
2023-07-24T17:35:41.869Z,68
2023-07-24T17:40:24.644Z,66.5
2023-07-24T17:45:07.345Z,69
2023-07-24T17:49:50.081Z,70
2023-07-24T17:54:32.860Z,73
2023-07-24T17:59:15.635Z,74
2023-07-24T18:03:58.355Z,75
2023-07-24T18:13:23.740Z,77
2023-07-24T18:22:49.726Z,77.5
2023-07-24T18:27:32.999Z,78
2023-07-24T18:32:16.230Z,78
2023-07-24T18:36:59.594Z,78.5
2023-07-24T18:41:42.786Z,79
2023-07-24T18:46:26.109Z,79
2023-07-24T18:51:09.327Z,78.5
2023-07-24T18:55:52.864Z,78.5
2023-07-24T19:00:35.878Z,78.5
2023-07-24T19:05:19.223Z,78.5
2023-07-24T19:10:02.450Z,78.5
2023-07-24T19:14:45.636Z,78.5
2023-07-24T19:19:28.933Z,78.5
2023-07-24T19:24:13.200Z,79
2023-07-24T19:28:57.621Z,79.5
2023-07-24T19:33:41.451Z,79.5
2023-07-24T19:38:25.596Z,80
2023-07-24T19:43:09.770Z,80
2023-07-24T19:47:54.006Z,80.5
2023-07-24T19:52:38.295Z,81
2023-07-24T19:57:22.501Z,82
2023-07-24T20:02:06.658Z,82.5
2023-07-24T20:06:50.790Z,83
2023-07-24T20:11:34.966Z,83.5
2023-07-24T20:16:19.195Z,84.5
2023-07-24T20:21:03.308Z,85
2023-07-24T20:25:47.508Z,85.5
2023-07-24T20:30:31.704Z,86
2023-07-24T20:35:15.994Z,86
2023-07-24T20:40:00.154Z,86
2023-07-24T20:44:44.310Z,86
2023-07-24T20:49:28.768Z,86
2023-07-24T20:54:12.847Z,85
2023-07-24T20:58:57.086Z,81.5
2023-07-24T21:03:41.207Z,81
2023-07-24T21:08:25.350Z,80
2023-07-24T21:13:09.696Z,79.5
2023-07-24T21:17:53.785Z,79
2023-07-24T21:22:38.013Z,79.5
2023-07-24T21:27:22.039Z,80
2023-07-24T21:32:06.474Z,81
2023-07-24T21:36:50.737Z,82
2023-07-24T21:41:35.020Z,82.5
2023-07-24T21:46:19.092Z,83
2023-07-24T21:51:03.461Z,84
2023-07-24T21:55:47.433Z,84.5
2023-07-24T22:00:31.772Z,85
2023-07-24T22:05:15.760Z,85
2023-07-24T22:09:59.944Z,85.5
2023-07-24T22:14:44.145Z,85.5
2023-07-24T22:19:28.318Z,85.5
2023-07-24T22:24:12.806Z,85.5
2023-07-24T22:28:56.946Z,86
2023-07-24T22:33:41.160Z,86.5
2023-07-24T22:38:25.847Z,86.5
2023-07-24T22:43:10.017Z,87
2023-07-24T22:47:54.168Z,87
2023-07-24T22:52:38.436Z,87.5
2023-07-24T22:57:22.729Z,88
2023-07-24T23:02:06.966Z,88
2023-07-24T23:06:51.038Z,88.5
2023-07-24T23:11:35.229Z,88.5
2023-07-24T23:16:19.392Z,89
2023-07-24T23:21:03.499Z,89
2023-07-24T23:25:48.079Z,89.5
2023-07-24T23:30:32.239Z,90
2023-07-24T23:35:16.365Z,90.5
2023-07-24T23:40:00.631Z,90.5
2023-07-24T23:44:45.150Z,91.5
2023-07-24T23:49:29.376Z,92
2023-07-24T23:54:13.508Z,92
2023-07-24T23:58:57.894Z,92.5
